KLBE/LBE METAR and TAF weather

Enter ICAO airport designator
Station Type Date Time Source
KLBE METAR 2020/03/31 09:55 UTC NOAA

KLBE 310955Z AUTO 00000KT 10SM BKN016 OVC024 04/04 A2999 RMK AO2


Station Type Date Time Source
KLBE Decoded METAR 2020/03/31 09:55 UTC NOAA

Latrobe / Westmorland, PA, United States (KLBE) 40-17N 079-24W
Mar 31, 2020 - 05:55 AM EDT / 2020.03.31 0955 UTC
Wind: Calm:0
Visibility: 10 mile(s):0
Sky conditions: overcast
Temperature: 39 F (4 C)
Dew Point: 39 F (4 C)
Relative Humidity: 100%
Pressure (altimeter): 29.99 in. Hg (1015 hPa)
ob: KLBE 310955Z AUTO 00000KT 10SM BKN016 OVC024 04/04 A2999 RMK AO2
cycle: 10

Station Type Date Time Source
KLBE TAF 2020/03/31 06:22 UTC NOAA

TAF KLBE 310520Z 3106/0106 28007KT P6SM OVC015
FM311700 32005KT P6SM OVC025
FM010100 VRB03KT P6SM OVC010

Example: see airport list